createdAt,value
2022-11-18T00:00:52.113Z,11.57
2022-11-18T00:03:18.536Z,11.58
2022-11-18T00:05:44.865Z,11.56
2022-11-18T00:08:11.221Z,11.49
2022-11-18T00:10:37.556Z,11.58
2022-11-18T00:13:03.933Z,11.62
2022-11-18T00:15:31.868Z,11.62
2022-11-18T00:17:56.643Z,11.53
2022-11-18T00:20:23.002Z,11.41
2022-11-18T00:22:49.346Z,11.36
2022-11-18T00:25:15.709Z,11.35
2022-11-18T00:27:42.064Z,11.37
2022-11-18T00:30:08.426Z,11.28
2022-11-18T00:32:34.844Z,11.13
2022-11-18T00:35:01.198Z,10.91
2022-11-18T00:37:27.551Z,10.75
2022-11-18T00:39:53.910Z,10.55
2022-11-18T00:42:20.339Z,10.46
2022-11-18T00:44:46.700Z,10.39
2022-11-18T00:47:13.046Z,10.35
2022-11-18T00:49:39.416Z,10.43
2022-11-18T00:52:05.861Z,10.39
2022-11-18T00:54:32.205Z,10.36
2022-11-18T00:56:58.566Z,10.34
2022-11-18T00:59:24.916Z,10.26
2022-11-18T01:01:51.350Z,10.22
2022-11-18T01:04:17.652Z,9.94
2022-11-18T01:06:43.984Z,9.87
2022-11-18T01:09:10.351Z,9.85
2022-11-18T01:11:36.750Z,9.87
2022-11-18T01:14:03.099Z,9.90
2022-11-18T01:16:29.427Z,9.92
2022-11-18T01:18:56.527Z,9.94
2022-11-18T01:21:22.146Z,9.93
2022-11-18T01:23:48.526Z,9.90
2022-11-18T01:26:14.846Z,9.83
2022-11-18T01:28:41.250Z,9.80
2022-11-18T01:31:07.575Z,9.85
2022-11-18T01:33:33.952Z,9.73
2022-11-18T01:36:00.310Z,9.74
2022-11-18T01:38:26.685Z,9.73
2022-11-18T01:40:53.013Z,9.83
2022-11-18T01:43:19.474Z,9.86
2022-11-18T01:45:45.806Z,9.99
2022-11-18T01:48:12.186Z,10.05
2022-11-18T01:50:38.588Z,10.09
2022-11-18T01:53:05.041Z,10.13
2022-11-18T01:55:31.380Z,10.16
2022-11-18T01:57:57.728Z,10.22
2022-11-18T02:00:24.107Z,10.25
2022-11-18T02:02:50.482Z,10.29
2022-11-18T02:05:16.817Z,10.28
2022-11-18T02:07:43.317Z,10.35
2022-11-18T02:10:09.585Z,10.29
2022-11-18T02:12:35.929Z,10.34
2022-11-18T02:15:02.360Z,10.30
2022-11-18T02:17:28.702Z,10.38
2022-11-18T02:19:55.053Z,10.44
2022-11-18T02:22:21.403Z,10.51
2022-11-18T02:24:48.079Z,10.45
2022-11-18T02:27:14.462Z,10.43
2022-11-18T02:29:40.784Z,10.44
2022-11-18T02:32:07.167Z,10.46
2022-11-18T02:34:33.537Z,10.52
2022-11-18T02:36:59.906Z,10.44
2022-11-18T02:39:26.231Z,10.48
2022-11-18T02:41:52.710Z,10.36
2022-11-18T02:44:19.079Z,10.28
2022-11-18T02:46:45.446Z,10.37
2022-11-18T02:49:11.788Z,10.50
2022-11-18T02:51:38.135Z,10.58
2022-11-18T02:54:04.496Z,10.70
2022-11-18T02:56:30.855Z,10.52
2022-11-18T02:58:57.218Z,10.37
2022-11-18T03:01:23.603Z,10.41
2022-11-18T03:03:49.920Z,10.47
2022-11-18T03:06:16.308Z,10.45
2022-11-18T03:08:42.672Z,10.46
2022-11-18T03:11:09.025Z,10.52
2022-11-18T03:13:35.425Z,10.54
2022-11-18T03:16:01.805Z,10.53
2022-11-18T03:18:28.153Z,10.67
2022-11-18T03:20:54.568Z,10.78
2022-11-18T03:23:20.920Z,10.77
2022-11-18T03:25:47.300Z,10.76
2022-11-18T03:28:13.671Z,10.79
2022-11-18T03:30:40.014Z,10.73
2022-11-18T03:33:06.349Z,10.65
2022-11-18T03:35:32.703Z,10.69
2022-11-18T03:37:59.062Z,10.64
2022-11-18T03:40:25.452Z,10.61
2022-11-18T03:42:51.817Z,10.67
2022-11-18T03:45:18.153Z,10.74
2022-11-18T03:47:44.530Z,10.74
2022-11-18T03:50:10.900Z,10.74
2022-11-18T03:52:37.252Z,10.82
2022-11-18T03:55:03.629Z,10.76
2022-11-18T03:57:29.994Z,10.48
2022-11-18T03:59:56.369Z,10.37
2022-11-18T04:02:22.696Z,10.35
2022-11-18T04:04:49.132Z,10.44
2022-11-18T04:07:15.535Z,10.46
2022-11-18T04:09:41.829Z,10.40
2022-11-18T04:12:08.189Z,10.46
2022-11-18T04:14:34.565Z,10.52
2022-11-18T04:17:00.927Z,10.62
2022-11-18T04:19:27.272Z,10.51
2022-11-18T04:21:53.631Z,10.46
2022-11-18T04:24:20.020Z,10.45
2022-11-18T04:26:46.380Z,10.40
2022-11-18T04:29:12.733Z,10.29
2022-11-18T04:31:39.093Z,10.19
2022-11-18T04:34:05.441Z,10.07
2022-11-18T04:36:31.806Z,10.09
2022-11-18T04:38:58.222Z,10.03
2022-11-18T04:41:24.563Z,10.14
2022-11-18T04:43:50.933Z,9.99
2022-11-18T04:46:17.342Z,10.00
2022-11-18T04:48:43.686Z,10.09
2022-11-18T04:51:10.022Z,10.15
2022-11-18T04:53:36.418Z,10.18
2022-11-18T04:56:02.773Z,10.09
2022-11-18T04:58:29.164Z,10.12
2022-11-18T05:00:55.539Z,10.07
2022-11-18T05:03:21.881Z,10.14
2022-11-18T05:05:48.213Z,10.22
2022-11-18T05:08:14.564Z,10.22
2022-11-18T05:10:40.920Z,10.22
2022-11-18T05:13:07.269Z,10.28
2022-11-18T05:15:33.603Z,10.35
2022-11-18T05:17:59.953Z,10.35
2022-11-18T05:20:26.307Z,10.27
2022-11-18T05:22:52.691Z,10.40
2022-11-18T05:25:19.047Z,10.48
2022-11-18T05:27:45.396Z,10.54
2022-11-18T05:30:11.755Z,10.66
2022-11-18T05:32:38.139Z,10.65
2022-11-18T05:35:04.511Z,10.60
2022-11-18T05:37:30.914Z,10.68
2022-11-18T05:39:57.267Z,10.80
2022-11-18T05:42:23.659Z,10.80
2022-11-18T05:44:54.654Z,10.85
2022-11-18T05:47:16.399Z,10.81
2022-11-18T05:49:42.744Z,10.71
2022-11-18T05:52:09.126Z,10.67
2022-11-18T05:54:35.457Z,10.75
2022-11-18T05:57:01.866Z,10.86
2022-11-18T05:59:28.204Z,10.88
2022-11-18T06:01:54.566Z,10.77
2022-11-18T06:04:21.063Z,10.72
2022-11-18T06:06:47.478Z,10.80
2022-11-18T06:09:13.809Z,10.84
2022-11-18T06:11:40.174Z,10.97
2022-11-18T06:14:06.571Z,10.94
2022-11-18T06:16:37.904Z,10.91
2022-11-18T06:18:59.287Z,10.99
2022-11-18T06:21:25.688Z,11.16
2022-11-18T06:23:52.027Z,11.17
2022-11-18T06:26:18.382Z,11.21
2022-11-18T06:28:44.750Z,11.29
2022-11-18T06:31:11.154Z,11.26
2022-11-18T06:33:37.646Z,11.27
2022-11-18T06:36:04.004Z,11.29
2022-11-18T06:38:30.359Z,11.09
2022-11-18T06:40:56.759Z,11.17
2022-11-18T06:43:23.164Z,11.13
2022-11-18T06:45:49.534Z,11.32
2022-11-18T06:48:15.892Z,11.41
2022-11-18T06:50:42.332Z,11.43
2022-11-18T06:53:08.692Z,11.54
2022-11-18T06:55:35.090Z,11.50
2022-11-18T06:58:01.452Z,11.39
2022-11-18T07:00:27.831Z,11.26
2022-11-18T07:02:54.184Z,11.37
2022-11-18T07:05:20.581Z,11.40
2022-11-18T07:07:47.045Z,11.48
2022-11-18T07:10:13.327Z,11.51
2022-11-18T07:12:39.658Z,11.71
2022-11-18T07:15:06.055Z,11.86
2022-11-18T07:17:32.427Z,11.69
2022-11-18T07:19:58.811Z,11.60
2022-11-18T07:22:25.160Z,11.72
2022-11-18T07:24:51.505Z,11.92
2022-11-18T07:27:17.833Z,12.04
2022-11-18T07:29:44.214Z,12.03
2022-11-18T07:32:10.548Z,12.18
2022-11-18T07:34:36.899Z,12.19
2022-11-18T07:37:03.258Z,12.09
2022-11-18T07:39:29.605Z,12.08
2022-11-18T07:41:56.048Z,11.95
2022-11-18T07:44:22.439Z,12.07
2022-11-18T07:46:48.784Z,12.03
2022-11-18T07:49:15.470Z,12.09
2022-11-18T07:51:41.532Z,12.22
2022-11-18T07:54:07.917Z,12.31
2022-11-18T07:56:34.346Z,12.46
2022-11-18T07:59:00.741Z,12.09
2022-11-18T08:01:27.124Z,12.02
2022-11-18T08:03:53.460Z,11.99
2022-11-18T08:06:19.798Z,12.06
2022-11-18T08:08:46.188Z,12.16
2022-11-18T08:11:15.200Z,12.20
2022-11-18T08:13:38.896Z,12.26
2022-11-18T08:16:05.255Z,12.09
2022-11-18T08:18:31.604Z,12.24
2022-11-18T08:20:57.960Z,12.39
2022-11-18T08:23:30.184Z,12.55
2022-11-18T08:25:50.986Z,12.41
2022-11-18T08:28:17.430Z,12.36
2022-11-18T08:30:43.709Z,12.54
2022-11-18T08:33:10.137Z,12.62
2022-11-18T08:35:36.505Z,12.71
2022-11-18T08:38:02.894Z,12.68
2022-11-18T08:40:29.223Z,12.70
2022-11-18T08:42:55.597Z,12.78
2022-11-18T08:45:21.959Z,12.99
2022-11-18T08:47:48.314Z,13.56
2022-11-18T08:50:14.645Z,13.58
2022-11-18T08:52:41.022Z,13.86
2022-11-18T08:55:07.397Z,13.53
2022-11-18T08:57:33.743Z,13.16
2022-11-18T09:00:00.212Z,13.21
2022-11-18T09:02:26.459Z,13.22
2022-11-18T09:04:52.794Z,13.17
2022-11-18T09:07:19.211Z,12.97
2022-11-18T09:09:45.490Z,12.92
2022-11-18T09:12:11.880Z,12.93
2022-11-18T09:15:13.018Z,12.86
2022-11-18T09:17:04.606Z,12.79
2022-11-18T09:19:47.927Z,12.80
2022-11-18T09:21:57.337Z,12.83
2022-11-18T09:24:23.709Z,12.59
2022-11-18T09:26:50.097Z,12.60
2022-11-18T09:29:16.418Z,12.55
2022-11-18T09:31:42.778Z,12.55
2022-11-18T09:34:09.107Z,12.66
2022-11-18T09:36:35.542Z,12.75
2022-11-18T09:39:01.910Z,12.75
2022-11-18T09:41:28.535Z,12.72
2022-11-18T09:43:54.894Z,12.61
2022-11-18T09:46:21.291Z,12.70
2022-11-18T09:48:47.624Z,12.67
2022-11-18T09:51:13.977Z,12.54
2022-11-18T09:53:40.341Z,12.50
2022-11-18T09:56:06.785Z,12.65
2022-11-18T09:58:33.117Z,13.03
2022-11-18T10:00:59.471Z,13.29
2022-11-18T10:03:25.830Z,13.13
2022-11-18T10:05:52.225Z,13.55
2022-11-18T10:08:18.571Z,14.14
2022-11-18T10:10:44.914Z,14.43
2022-11-18T10:13:11.249Z,14.36
2022-11-18T10:15:37.648Z,14.84
2022-11-18T10:18:03.990Z,15.93
2022-11-18T10:20:30.371Z,15.54
2022-11-18T10:22:56.735Z,15.80
2022-11-18T10:25:23.116Z,16.43
2022-11-18T10:27:49.473Z,17.00
2022-11-18T10:30:15.848Z,17.33
2022-11-18T10:32:42.173Z,17.08
2022-11-18T10:35:08.679Z,16.47
2022-11-18T10:38:00.635Z,17.12
2022-11-18T10:40:01.407Z,17.19
2022-11-18T10:42:27.768Z,17.58
2022-11-18T10:44:54.149Z,18.28
2022-11-18T10:47:20.521Z,19.03
2022-11-18T10:49:46.863Z,19.55
2022-11-18T10:52:13.209Z,19.60
2022-11-18T10:54:39.597Z,18.94
2022-11-18T10:57:05.950Z,18.46
2022-11-18T10:59:32.338Z,18.73
2022-11-18T11:01:58.772Z,18.99
2022-11-18T11:04:25.040Z,18.93
2022-11-18T11:06:51.393Z,19.09
2022-11-18T11:09:17.772Z,18.33
2022-11-18T11:11:44.131Z,17.95
2022-11-18T11:14:10.547Z,17.94
2022-11-18T11:16:36.894Z,18.14
2022-11-18T11:19:03.257Z,18.32
2022-11-18T11:21:29.694Z,18.14
2022-11-18T11:23:55.992Z,18.27
2022-11-18T11:28:48.661Z,17.93
2022-11-18T11:31:15.009Z,18.21
2022-11-18T11:33:41.370Z,18.57
2022-11-18T11:36:07.768Z,18.66
2022-11-18T11:38:34.124Z,18.66
2022-11-18T11:41:00.509Z,18.34
2022-11-18T11:43:26.848Z,18.00
2022-11-18T11:45:53.239Z,17.95
2022-11-18T11:48:19.574Z,17.98
2022-11-18T11:50:52.896Z,17.91
2022-11-18T11:53:12.303Z,17.66
2022-11-18T11:55:38.687Z,17.51
2022-11-18T11:58:05.079Z,17.41
2022-11-18T12:00:31.414Z,17.52
2022-11-18T12:02:57.812Z,17.42
2022-11-18T12:05:24.149Z,17.25
2022-11-18T12:07:50.471Z,17.11
2022-11-18T12:10:16.857Z,17.20
2022-11-18T12:12:43.196Z,17.27
2022-11-18T12:15:09.537Z,17.27
2022-11-18T12:17:35.857Z,17.24
2022-11-18T12:20:02.273Z,17.43
2022-11-18T12:22:28.586Z,17.71
2022-11-18T12:24:54.972Z,17.69
2022-11-18T12:27:21.292Z,17.59
2022-11-18T12:29:47.636Z,17.66
2022-11-18T12:32:14.014Z,17.74
2022-11-18T12:34:40.354Z,17.77
2022-11-18T12:37:06.715Z,18.00
2022-11-18T12:39:33.096Z,18.03
2022-11-18T12:41:59.414Z,18.15
2022-11-18T12:44:25.784Z,18.00
2022-11-18T12:46:52.211Z,17.80
2022-11-18T12:49:18.829Z,17.82
2022-11-18T12:51:44.920Z,17.87
2022-11-18T12:54:13.887Z,17.98
2022-11-18T12:56:37.640Z,17.97
2022-11-18T12:59:03.990Z,17.87
2022-11-18T13:01:30.354Z,17.94
2022-11-18T13:03:56.708Z,18.01
2022-11-18T13:06:23.067Z,18.03
2022-11-18T13:08:49.451Z,18.18
2022-11-18T13:11:15.869Z,18.05
2022-11-18T13:13:42.202Z,17.96
2022-11-18T13:16:09.826Z,17.95
2022-11-18T13:18:34.925Z,17.99
2022-11-18T13:21:01.291Z,18.48
2022-11-18T13:23:27.640Z,18.40
2022-11-18T13:25:53.998Z,18.91
2022-11-18T13:28:20.387Z,19.09
2022-11-18T13:30:46.702Z,19.57
2022-11-18T13:33:14.800Z,19.32
2022-11-18T13:35:39.513Z,19.04
2022-11-18T13:38:05.910Z,19.01
2022-11-18T13:40:32.259Z,18.77
2022-11-18T13:42:58.621Z,18.75
2022-11-18T13:45:24.945Z,18.59
2022-11-18T13:47:51.309Z,18.52
2022-11-18T13:50:17.669Z,18.57
2022-11-18T13:52:44.031Z,18.45
2022-11-18T13:55:10.402Z,18.54
2022-11-18T13:57:36.785Z,18.59
2022-11-18T14:00:03.115Z,18.45
2022-11-18T14:02:29.458Z,18.53
2022-11-18T14:04:55.785Z,18.47
2022-11-18T14:07:22.205Z,18.30
2022-11-18T14:09:48.511Z,18.29
2022-11-18T14:12:14.849Z,18.42
2022-11-18T14:14:41.208Z,18.52
2022-11-18T14:17:07.552Z,18.58
2022-11-18T14:19:33.949Z,18.67
2022-11-18T14:22:00.324Z,18.63
2022-11-18T14:24:26.676Z,18.57
2022-11-18T14:26:53.029Z,18.42
2022-11-18T14:29:19.602Z,18.39
2022-11-18T14:31:45.693Z,18.42
2022-11-18T14:34:12.064Z,18.35
2022-11-18T14:36:41.054Z,18.44
2022-11-18T14:39:25.429Z,18.44
2022-11-18T14:41:31.233Z,18.36
2022-11-18T14:43:57.557Z,18.23
2022-11-18T14:46:23.913Z,18.20
2022-11-18T14:48:50.231Z,18.21
2022-11-18T14:51:16.767Z,18.25
2022-11-18T14:53:43.129Z,18.21
2022-11-18T14:56:09.520Z,18.20
2022-11-18T14:58:35.836Z,18.18
2022-11-18T15:01:02.218Z,18.29
2022-11-18T15:03:28.512Z,18.31
2022-11-18T15:05:54.902Z,18.41
2022-11-18T15:08:21.256Z,18.42
2022-11-18T15:10:47.605Z,18.72
2022-11-18T15:13:13.959Z,19.42
2022-11-18T15:15:40.335Z,19.70
2022-11-18T15:18:06.695Z,19.74
2022-11-18T15:20:33.033Z,19.72
2022-11-18T15:22:59.384Z,19.76
2022-11-18T15:25:25.720Z,19.81
2022-11-18T15:27:52.041Z,19.98
2022-11-18T15:30:18.449Z,20.17
2022-11-18T15:32:44.818Z,20.22
2022-11-18T15:35:11.182Z,20.18
2022-11-18T15:37:37.554Z,20.05
2022-11-18T15:40:03.929Z,20.01
2022-11-18T15:42:30.251Z,19.99
2022-11-18T15:44:56.666Z,19.83
2022-11-18T15:47:22.976Z,19.74
2022-11-18T15:49:49.367Z,19.71
2022-11-18T15:52:15.719Z,19.78
2022-11-18T15:54:42.056Z,19.71
2022-11-18T15:57:08.431Z,19.75
2022-11-18T15:59:34.818Z,19.83
2022-11-18T16:02:01.178Z,19.78
2022-11-18T16:04:27.561Z,19.63
2022-11-18T16:06:53.988Z,19.61
2022-11-18T16:09:20.558Z,19.69
2022-11-18T16:11:46.625Z,20.00
2022-11-18T16:14:13.011Z,20.04
2022-11-18T16:16:39.332Z,19.99
2022-11-18T16:19:05.714Z,19.78
2022-11-18T16:21:32.060Z,19.71
2022-11-18T16:23:58.415Z,19.71
2022-11-18T16:26:24.784Z,19.72
2022-11-18T16:28:51.130Z,19.70
2022-11-18T16:31:17.460Z,19.47
2022-11-18T16:33:43.808Z,19.22
2022-11-18T16:36:10.206Z,18.98
2022-11-18T16:38:36.545Z,18.73
2022-11-18T16:41:02.867Z,18.60
2022-11-18T16:43:29.254Z,18.58
2022-11-18T16:45:55.632Z,18.50
2022-11-18T16:48:22.008Z,18.34
2022-11-18T16:50:48.336Z,18.28
2022-11-18T16:53:14.675Z,18.18
2022-11-18T16:55:40.995Z,17.84
2022-11-18T16:58:07.383Z,17.76
2022-11-18T17:01:09.329Z,17.82
2022-11-18T17:03:00.092Z,17.71
2022-11-18T17:05:26.475Z,17.58
2022-11-18T17:07:52.918Z,17.48
2022-11-18T17:10:19.158Z,17.47
2022-11-18T17:12:45.587Z,17.55
2022-11-18T17:15:11.949Z,17.39
2022-11-18T17:17:38.394Z,17.35
2022-11-18T17:20:04.748Z,17.17
2022-11-18T17:22:31.091Z,17.13
2022-11-18T17:25:02.212Z,17.16
2022-11-18T17:27:23.871Z,17.05
2022-11-18T17:29:50.189Z,17.01
2022-11-18T17:32:16.572Z,16.79
2022-11-18T17:34:42.927Z,16.82
2022-11-18T17:37:09.309Z,16.75
2022-11-18T17:39:35.664Z,16.67
2022-11-18T17:42:02.058Z,16.75
2022-11-18T17:44:28.405Z,17.04
2022-11-18T17:46:54.750Z,17.07
2022-11-18T17:49:21.130Z,16.92
2022-11-18T17:51:47.491Z,16.79
2022-11-18T17:54:13.851Z,16.71
2022-11-18T17:56:40.185Z,16.56
2022-11-18T17:59:06.511Z,16.45
2022-11-18T18:01:32.963Z,16.17
2022-11-18T18:03:59.208Z,16.24
2022-11-18T18:06:25.576Z,16.50
2022-11-18T18:08:51.933Z,16.61
2022-11-18T18:11:18.309Z,16.43
2022-11-18T18:13:44.631Z,16.25
2022-11-18T18:16:11.025Z,16.06
2022-11-18T18:18:37.349Z,16.06
2022-11-18T18:21:05.454Z,15.88
2022-11-18T18:23:30.108Z,15.84
2022-11-18T18:25:56.476Z,15.98
2022-11-18T18:28:22.801Z,16.02
2022-11-18T18:30:49.184Z,16.12
2022-11-18T18:33:15.534Z,16.17
2022-11-18T18:35:41.924Z,16.17
2022-11-18T18:38:08.288Z,16.17
2022-11-18T18:40:34.670Z,16.12
2022-11-18T18:43:01.027Z,16.22
2022-11-18T18:45:27.449Z,16.12
2022-11-18T18:47:53.780Z,16.15
2022-11-18T18:50:23.792Z,16.19
2022-11-18T18:52:46.484Z,16.30
2022-11-18T18:55:12.865Z,16.41
2022-11-18T18:57:39.207Z,16.46
2022-11-18T19:00:05.591Z,16.62
2022-11-18T19:02:31.948Z,16.78
2022-11-18T19:04:58.288Z,17.07
2022-11-18T19:07:24.811Z,17.18
2022-11-18T19:09:51.132Z,17.13
2022-11-18T19:12:17.496Z,17.22
2022-11-18T19:14:43.825Z,17.38
2022-11-18T19:17:12.145Z,17.36
2022-11-18T19:19:36.562Z,17.28
2022-11-18T19:22:03.050Z,17.27
2022-11-18T19:26:55.615Z,17.20
2022-11-18T19:29:25.604Z,17.08
2022-11-18T19:31:48.317Z,17.06
2022-11-18T19:34:14.657Z,17.05
2022-11-18T19:36:40.978Z,17.09
2022-11-18T19:39:07.379Z,17.12
2022-11-18T19:41:33.692Z,17.09
2022-11-18T19:44:00.080Z,17.23
2022-11-18T19:46:30.446Z,17.35
2022-11-18T19:48:52.825Z,17.38
2022-11-18T19:51:19.137Z,17.33
2022-11-18T19:53:45.480Z,17.33
2022-11-18T19:56:11.841Z,17.22
2022-11-18T19:58:38.215Z,17.29
2022-11-18T20:01:04.613Z,17.32
2022-11-18T20:03:30.977Z,17.29
2022-11-18T20:05:57.298Z,17.29
2022-11-18T20:08:23.683Z,17.28
2022-11-18T20:10:50.069Z,17.31
2022-11-18T20:13:16.510Z,17.25
2022-11-18T20:15:42.878Z,17.22
2022-11-18T20:18:09.256Z,17.20
2022-11-18T20:20:35.620Z,17.09
2022-11-18T20:23:01.994Z,16.94
2022-11-18T20:25:28.362Z,16.89
2022-11-18T20:27:54.739Z,16.77
2022-11-18T20:30:21.093Z,16.73
2022-11-18T20:32:47.745Z,16.70
2022-11-18T20:35:14.098Z,16.76
2022-11-18T20:37:40.527Z,16.75
2022-11-18T20:40:06.911Z,16.72
2022-11-18T20:42:33.300Z,16.69
2022-11-18T20:44:59.621Z,16.63
2022-11-18T20:47:26.068Z,16.58
2022-11-18T20:49:52.385Z,16.53
2022-11-18T20:52:18.768Z,16.46
2022-11-18T20:54:45.167Z,16.44
2022-11-18T20:57:11.507Z,16.43
2022-11-18T20:59:37.824Z,16.41
2022-11-18T21:02:04.232Z,16.35
2022-11-18T21:04:30.582Z,16.28
2022-11-18T21:06:56.969Z,16.19
2022-11-18T21:09:23.282Z,16.12
2022-11-18T21:11:49.653Z,16.18
2022-11-18T21:14:21.635Z,16.16
2022-11-18T21:16:42.487Z,16.15
2022-11-18T21:19:08.819Z,16.09
2022-11-18T21:21:35.166Z,16.08
2022-11-18T21:24:01.559Z,16.01
2022-11-18T21:26:27.899Z,16.02
2022-11-18T21:28:54.256Z,15.97
2022-11-18T21:31:23.209Z,15.87
2022-11-18T21:33:46.959Z,15.96
2022-11-18T21:36:13.386Z,15.99
2022-11-18T21:38:39.699Z,16.05
2022-11-18T21:41:06.626Z,16.09
2022-11-18T21:44:03.342Z,16.08
2022-11-18T21:45:59.336Z,16.11
2022-11-18T21:48:25.754Z,16.19
2022-11-18T21:50:52.068Z,16.18
2022-11-18T21:53:18.453Z,16.28
2022-11-18T21:55:45.042Z,16.36
2022-11-18T21:58:11.422Z,16.36
2022-11-18T22:00:37.827Z,16.40
2022-11-18T22:03:04.150Z,16.39
2022-11-18T22:05:30.470Z,16.03
2022-11-18T22:07:56.856Z,15.75
2022-11-18T22:10:23.178Z,15.61
2022-11-18T22:12:49.565Z,15.53
2022-11-18T22:15:15.879Z,15.50
2022-11-18T22:17:42.254Z,15.36
2022-11-18T22:20:08.611Z,15.37
2022-11-18T22:22:34.999Z,15.44
2022-11-18T22:25:01.317Z,15.52
2022-11-18T22:27:27.720Z,15.81
2022-11-18T22:29:54.045Z,15.84
2022-11-18T22:32:20.399Z,15.85
2022-11-18T22:34:51.594Z,15.87
2022-11-18T22:37:13.145Z,15.77
2022-11-18T22:39:39.487Z,15.75
2022-11-18T22:42:05.878Z,15.71
2022-11-18T22:44:32.204Z,15.52
2022-11-18T22:46:58.550Z,15.28
2022-11-18T22:49:24.874Z,15.12
2022-11-18T22:51:51.215Z,15.10
2022-11-18T22:56:43.915Z,14.96
2022-11-18T22:59:10.234Z,14.85
2022-11-18T23:01:36.628Z,14.77
2022-11-18T23:04:02.979Z,14.70
2022-11-18T23:06:29.333Z,14.62
2022-11-18T23:08:55.688Z,14.69
2022-11-18T23:11:22.083Z,14.68
2022-11-18T23:13:48.437Z,14.65
2022-11-18T23:16:14.768Z,14.63
2022-11-18T23:18:41.146Z,14.65
2022-11-18T23:21:07.556Z,14.62
2022-11-18T23:23:33.918Z,14.75
2022-11-18T23:26:00.291Z,14.73
2022-11-18T23:28:26.645Z,14.78
2022-11-18T23:30:52.988Z,14.87
2022-11-18T23:33:19.375Z,14.88
2022-11-18T23:35:45.783Z,14.87
2022-11-18T23:38:12.139Z,14.83
2022-11-18T23:40:38.487Z,14.83
2022-11-18T23:43:04.810Z,14.86
2022-11-18T23:45:31.212Z,14.79
2022-11-18T23:47:57.546Z,14.77
2022-11-18T23:50:23.897Z,14.75
2022-11-18T23:52:50.269Z,14.75
2022-11-18T23:55:16.652Z,14.77
2022-11-18T23:57:42.988Z,14.70
